AirNav   Everest Fuels
 
 582 users online  

2IA2 MercyOne Elkader Medical Center Heliport
Elkader, Iowa, USA

GOING TO ELKADER?


FAA INFORMATION EFFECTIVE 07 NOVEMBER 2019

Location

FAA Identifier: 2IA2
Lat/Long: 42-51-36.3700N 091-24-54.5100W
42-51.606167N 091-24.908500W
42.8601028,-91.4151417
(estimated)
Elevation: 774 ft. / 236 m (estimated)
Variation: 02E (1985)
Time zone: UTC -6 (UTC -5 during Daylight Saving Time)
Zip code: 52043

Heliport Operations

Heliport use: Private use, MEDICAL.
Activation date: 12/1982
Control tower: no
ARTCC: CHICAGO CENTER
FSS: FORT DODGE FLIGHT SERVICE STATION
Attendance: CONTINUOUS
Wind indicator: yes
Segmented circle: no
Lights: FOR STROBE LGT CALL - 563-245-7000.

Heliport Communications

WX AWOS-3 at PDC (16 nm NE): 119.925 (608-326-9122)

Nearby radio navigation aids

VOR radial/distance  VOR name  Freq  Var
UKNr163/25.8WAUKON VOR/DME116.6005E

 
NDB name  Hdg/Dist  Freq  Var  ID
WAPSIE044/34.020600EIIB .. .. -...

Heliport Services

Runway Information

Helipad H1

Dimensions: 70 x 70 ft. / 21 x 21 m
Surface: concrete
Latitude: 42-51.606167N
Longitude: 091-24.908500W
Elevation: 774.0 ft.
Traffic pattern: leftleft
Obstructions: pole, lighted

Heliport Ownership and Management from official FAA records

Ownership: Privately-owned
Owner: CENTRAL COMMUNITY HOSPITAL
901 DAVIDSON NW
ELKADER, IA 52043
Phone 563-245-7000
D/B/A MERCYONE ELKADER MEDICAL CENTER
Manager: BROOKE KENSINGER, HOSPITAL ADMIN
901 DAVIDSON NW
ELKADER, IA 52043
Phone (563) 245-7085

Additional Remarks

FOR CD CTC CHICAGO ARTCC AT 630-906-8921.

Instrument Procedures

There are no published instrument procedures at 2IA2.

Some nearby airports with instrument procedures:

KPDC - Prairie du Chien Municipal Airport (16 nm NE)
3Y2 - George L Scott Municipal Airport (18 nm NW)
KOLZ - Oelwein Municipal Airport (27 nm SW)
KDEH - Decorah Municipal Airport (29 nm NW)
KIIB - Independence Municipal Airport (34 nm SW)
 
Loc | Ops | Rwys | IFR | FBO | Links
Com | Nav | Svcs | Stats | Notes
Area around 2IA2 (MercyOne Elkader Medical Center Heliport)
 
Road maps at: MapQuest Bing Google
 
Aerial photo
No photo
 
Sectional chart

 
Airport distance calculator
Flying to MercyOne Elkader Medical Center Heliport? Find the distance to fly.

From to 2IA2

Sunrise and sunset
Times for 22-Nov-2019
 Local
(UTC-6)
 Zulu
(UTC)
Morning civil twilight06:3612:36
Sunrise07:0713:07
Sunset16:3622:36
Evening civil twilight17:0723:07

Current date and time
Zulu (UTC)  22-Nov-2019 07:37:40
Local (UTC-6)  22-Nov-2019 01:37:40
 
METAR
KPDC 
16nm NE 
220715Z AUTO 29011G16KT 10SM BKN023 M02/M06 A3016 RMK AO2 T10161065
KOLZ 
27nm SW 
220715Z AUTO 33011KT 10SM OVC015 M04/M05 A3017 RMK A01
KDEH 
28nm NW 
220715Z AUTO 34014G20KT 10SM OVC018 M04/M07 A3014 RMK AO2
TAF
KDBQ 
42nm SE 
220520Z 2206/2306 34011KT P6SM BKN030 FM221300 31004KT P6SM SKC
KALO 
47nm SW 
220520Z 2206/2306 33010KT P6SM SCT020 FM221000 33008KT P6SM FEW150 FM221400 35005KT P6SM SKC
NOTAMs
Click for the latest NOTAMs
NOTAMs are issued by the DoD/FAA and will open in a separate window not controlled by AirNav.

 

 
 

Would you like to see your business listed on this page?

 If your business provides an interesting product or service to pilots, flight crews, aircraft, or users of the MercyOne Elkader Medical Center Heliport, you should consider listing it here.  To start the listing process, click on the button below
 
Add a business
 

Other Pages about MercyOne Elkader Medical Center Heliport

Update a link
 
Copyright © AirNav, LLC. All rights reserved. Privacy Policy  Contact